Mexicali, Mexico

12:29 AM PST on December 10, 2016 (GMT -0800)
PROTECCION CIVIL BC (MEXICALI) | | Change Station

Elev 5 ft 32.63 °N, 115.49 °W | Updated 11 minutes ago

Clear
Clear
52.2 °F
Feels Like 52.2 °F
N
0.0
Wind Variable Wind from NNW
Gusts 0.0 mph

Today
High -- | Low -- °F
--% Chance of Precip.
Yesterday
High -- | Low -- °F
Precip. -- in
Pressure 30.14 in
Visibility 10.0 miles
Clouds Clear
Dew Point 38 °F
Humidity 60%
Rainfall 0.00 in
Snow Depth Not available.
6:33 AM 4:36 PM
Waxing Gibbous, 81% visible
METAR KIPL 100753Z AUTO 00000KT 10SM CLR 09/00 A3013 RMK AO2 SLP204 T00890000 402110056
Pressure 30.14 in
Visibility 10.0 miles
Clouds Clear
Dew Point 38 °F
Humidity 60%
Rainfall 0.00 in
Snow Depth Not available.
6:33 AM 4:36 PM
Waxing Gibbous, 81% visible
METAR KIPL 100753Z AUTO 00000KT 10SM CLR 09/00 A3013 RMK AO2 SLP204 T00890000 402110056

10-Day Weather Forecast

No radar image for this location.
×

Almanac

Astronomy

Dec. 10, 2016 Rise Set
Actual Time
Civil Twilight
Nautical Twilight
Astronomical Twilight
Moon
Length of Visible Light
Length of Day
Tomorrow will be .
, % of the Moon is Illuminated

Today's Extremes

Country Highs Country Lows

Community

WunderPhotos

Upload Photos

1,956,538 photos uploaded!

WunderBlog® & News

Nearby

Air Quality

  Air Quality AQ Index Pollutant
Not available.

Snow Depth

Station Depth Elevation

Earthquake Activity

City Distance Mag. Time & Date
Minimum magnitude displayed is 2.5.

Coastal Water Temperatures

Place Temperature

Stations

Nearby Weather Stations

Station Location Temp. Windchill Dew Point Humidity Wind Precip. Elev Updated Type